sensor_id;sensor_type;location;lat;lon;timestamp;pressure;altitude;pressure_sealevel;temperature;humidity
66524;BME280;53350;52.210;5.160;2023-05-20T00:00:07;102618.22;;;14.06;60.16
66524;BME280;53350;52.210;5.160;2023-05-20T00:02:35;102610.44;;;14.06;59.98
66524;BME280;53350;52.210;5.160;2023-05-20T00:05:01;102619.06;;;14.02;60.25
66524;BME280;53350;52.210;5.160;2023-05-20T00:07:28;102610.41;;;13.99;60.25
66524;BME280;53350;52.210;5.160;2023-05-20T00:09:54;102609.53;;;13.97;60.73
66524;BME280;53350;52.210;5.160;2023-05-20T00:12:21;102618.16;;;13.91;60.69
66524;BME280;53350;52.210;5.160;2023-05-20T00:14:49;102619.06;;;13.96;60.74
66524;BME280;53350;52.210;5.160;2023-05-20T00:17:15;102615.56;;;13.89;60.92
66524;BME280;53350;52.210;5.160;2023-05-20T00:19:42;102614.69;;;13.86;61.12
66524;BME280;53350;52.210;5.160;2023-05-20T00:22:08;102610.38;;;13.85;61.22
66524;BME280;53350;52.210;5.160;2023-05-20T00:24:34;102610.38;;;13.86;61.27
66524;BME280;53350;52.210;5.160;2023-05-20T00:27:01;102614.69;;;13.84;61.55
66524;BME280;53350;52.210;5.160;2023-05-20T00:29:27;102612.09;;;13.80;61.62
66524;BME280;53350;52.210;5.160;2023-05-20T00:31:56;102611.19;;;13.68;61.96
66524;BME280;53350;52.210;5.160;2023-05-20T00:34:22;102609.47;;;13.72;62.12
66524;BME280;53350;52.210;5.160;2023-05-20T00:36:48;102614.66;;;13.73;62.12
66524;BME280;53350;52.210;5.160;2023-05-20T00:39:15;102618.09;;;13.71;62.43
66524;BME280;53350;52.210;5.160;2023-05-20T00:41:42;102617.25;;;13.67;62.32
66524;BME280;53350;52.210;5.160;2023-05-20T00:44:08;102612.91;;;13.68;62.38
66524;BME280;53350;52.210;5.160;2023-05-20T00:46:35;102609.47;;;13.66;62.62
66524;BME280;53350;52.210;5.160;2023-05-20T00:49:03;102608.59;;;13.64;62.63
66524;BME280;53350;52.210;5.160;2023-05-20T00:51:30;102610.31;;;13.60;62.90
66524;BME280;53350;52.210;5.160;2023-05-20T00:53:57;102608.56;;;13.57;62.98
66524;BME280;53350;52.210;5.160;2023-05-20T00:56:24;102609.41;;;13.50;63.30
66524;BME280;53350;52.210;5.160;2023-05-20T00:58:51;102602.47;;;13.48;63.34
66524;BME280;53350;52.210;5.160;2023-05-20T01:01:17;102591.28;;;13.49;63.57
66524;BME280;53350;52.210;5.160;2023-05-20T01:03:44;102585.22;;;13.45;63.73
66524;BME280;53350;52.210;5.160;2023-05-20T01:06:11;102580.91;;;13.46;63.63
66524;BME280;53350;52.210;5.160;2023-05-20T01:08:38;102574.84;;;13.45;63.57
66524;BME280;53350;52.210;5.160;2023-05-20T01:11:07;102592.13;;;13.46;63.80
66524;BME280;53350;52.210;5.160;2023-05-20T01:13:38;102586.94;;;13.42;63.96
66524;BME280;53350;52.210;5.160;2023-05-20T01:16:07;102586.03;;;13.35;64.32
66524;BME280;53350;52.210;5.160;2023-05-20T01:18:36;102583.41;;;13.30;64.31
66524;BME280;53350;52.210;5.160;2023-05-20T01:21:06;102581.63;;;13.20;64.76
66524;BME280;53350;52.210;5.160;2023-05-20T01:23:37;102585.06;;;13.22;64.95
66524;BME280;53350;52.210;5.160;2023-05-20T01:26:04;102583.38;;;13.24;64.76
66524;BME280;53350;52.210;5.160;2023-05-20T01:28:31;102573.03;;;13.21;64.97
66524;BME280;53350;52.210;5.160;2023-05-20T01:30:59;102577.31;;;13.17;64.93
66524;BME280;53350;52.210;5.160;2023-05-20T01:33:27;102575.59;;;13.18;65.21
66524;BME280;53350;52.210;5.160;2023-05-20T01:35:55;102566.94;;;13.13;65.36
66524;BME280;53350;52.210;5.160;2023-05-20T01:38:23;102572.09;;;13.11;65.39
66524;BME280;53350;52.210;5.160;2023-05-20T01:40:52;102562.63;;;13.16;65.35
66524;BME280;53350;52.210;5.160;2023-05-20T01:43:20;102566.09;;;13.15;65.29
66524;BME280;53350;52.210;5.160;2023-05-20T01:45:46;102561.75;;;13.13;65.75
66524;BME280;53350;52.210;5.160;2023-05-20T01:48:13;102564.34;;;13.14;65.42
66524;BME280;53350;52.210;5.160;2023-05-20T01:50:39;102560.03;;;13.13;65.60
66524;BME280;53350;52.210;5.160;2023-05-20T01:53:06;102570.41;;;13.18;65.58
66524;BME280;53350;52.210;5.160;2023-05-20T01:55:33;102559.19;;;13.19;65.46
66524;BME280;53350;52.210;5.160;2023-05-20T01:58:01;102558.31;;;13.15;65.63
66524;BME280;53350;52.210;5.160;2023-05-20T02:00:28;102557.47;;;13.18;65.48
66524;BME280;53350;52.210;5.160;2023-05-20T02:02:54;102555.75;;;13.15;65.59
66524;BME280;53350;52.210;5.160;2023-05-20T02:05:20;102557.47;;;13.18;65.56
66524;BME280;53350;52.210;5.160;2023-05-20T02:07:47;102556.59;;;13.16;65.62
66524;BME280;53350;52.210;5.160;2023-05-20T02:10:13;102564.34;;;13.11;65.85
66524;BME280;53350;52.210;5.160;2023-05-20T02:12:40;102561.75;;;13.11;65.81
66524;BME280;53350;52.210;5.160;2023-05-20T02:15:08;102557.41;;;13.07;66.00
66524;BME280;53350;52.210;5.160;2023-05-20T02:17:35;102553.97;;;13.07;65.87
66524;BME280;53350;52.210;5.160;2023-05-20T02:20:02;102555.66;;;13.01;66.15
66524;BME280;53350;52.210;5.160;2023-05-20T02:22:30;102561.69;;;13.00;66.03
66524;BME280;53350;52.210;5.160;2023-05-20T02:24:57;102553.03;;;12.94;66.27
66524;BME280;53350;52.210;5.160;2023-05-20T02:27:23;102561.66;;;12.93;66.59
66524;BME280;53350;52.210;5.160;2023-05-20T02:29:50;102560.81;;;12.94;66.73
66524;BME280;53350;52.210;5.160;2023-05-20T02:32:17;102556.47;;;12.93;66.60
66524;BME280;53350;52.210;5.160;2023-05-20T02:34:44;102559.06;;;12.94;66.67
66524;BME280;53350;52.210;5.160;2023-05-20T02:37:11;102554.75;;;12.92;66.79
66524;BME280;53350;52.210;5.160;2023-05-20T02:39:37;102547.88;;;12.92;66.72
66524;BME280;53350;52.210;5.160;2023-05-20T02:42:04;102548.69;;;12.88;66.75
66524;BME280;53350;52.210;5.160;2023-05-20T02:44:30;102549.53;;;12.85;66.70
66524;BME280;53350;52.210;5.160;2023-05-20T02:46:57;102549.53;;;12.85;67.05
66524;BME280;53350;52.210;5.160;2023-05-20T02:49:24;102540.94;;;12.85;66.96
66524;BME280;53350;52.210;5.160;2023-05-20T02:51:51;102543.53;;;12.86;66.93
66524;BME280;53350;52.210;5.160;2023-05-20T02:54:17;102540.09;;;12.89;66.93
66524;BME280;53350;52.210;5.160;2023-05-20T02:56:44;102547.81;;;12.86;66.80
66524;BME280;53350;52.210;5.160;2023-05-20T02:59:10;102544.38;;;12.87;66.91
66524;BME280;53350;52.210;5.160;2023-05-20T03:01:36;102541.78;;;12.87;66.60
66524;BME280;53350;52.210;5.160;2023-05-20T03:04:04;102546.09;;;12.86;66.91
66524;BME280;53350;52.210;5.160;2023-05-20T03:06:32;102546.09;;;12.82;66.97
66524;BME280;53350;52.210;5.160;2023-05-20T03:08:59;102538.34;;;12.83;66.88
66524;BME280;53350;52.210;5.160;2023-05-20T03:11:25;102539.19;;;12.85;66.88
66524;BME280;53350;52.210;5.160;2023-05-20T03:13:52;102548.69;;;12.85;66.86
66524;BME280;53350;52.210;5.160;2023-05-20T03:16:18;102539.19;;;12.81;67.02
66524;BME280;53350;52.210;5.160;2023-05-20T03:18:45;102540.94;;;12.83;66.94
66524;BME280;53350;52.210;5.160;2023-05-20T03:21:11;102541.78;;;12.87;66.87
66524;BME280;53350;52.210;5.160;2023-05-20T03:23:39;102539.19;;;12.85;66.88
66524;BME280;53350;52.210;5.160;2023-05-20T03:26:05;102545.22;;;12.86;66.75
66524;BME280;53350;52.210;5.160;2023-05-20T03:28:32;102542.69;;;12.91;66.64
66524;BME280;53350;52.210;5.160;2023-05-20T03:30:58;102551.31;;;12.94;66.40
66524;BME280;53350;52.210;5.160;2023-05-20T03:33:26;102545.28;;;12.91;66.62
66524;BME280;53350;52.210;5.160;2023-05-20T03:35:53;102546.97;;;12.92;66.40
66524;BME280;53350;52.210;5.160;2023-05-20T03:38:19;102547.81;;;12.86;66.78
66524;BME280;53350;52.210;5.160;2023-05-20T03:40:47;102547.81;;;12.86;66.48
66524;BME280;53350;52.210;5.160;2023-05-20T03:43:14;102552.97;;;12.86;66.75
66524;BME280;53350;52.210;5.160;2023-05-20T03:45:40;102546.13;;;12.93;66.48
66524;BME280;53350;52.210;5.160;2023-05-20T03:48:07;102549.63;;;12.96;66.42
66524;BME280;53350;52.210;5.160;2023-05-20T03:50:33;102544.44;;;12.96;66.38
66524;BME280;53350;52.210;5.160;2023-05-20T03:53:00;102543.53;;;12.93;66.61
66524;BME280;53350;52.210;5.160;2023-05-20T03:55:26;102547.03;;;12.95;66.68
66524;BME280;53350;52.210;5.160;2023-05-20T03:57:54;102535.78;;;12.91;66.52
66524;BME280;53350;52.210;5.160;2023-05-20T04:00:20;102538.38;;;12.91;66.85
66524;BME280;53350;52.210;5.160;2023-05-20T04:02:47;102544.41;;;12.92;66.94
66524;BME280;53350;52.210;5.160;2023-05-20T04:05:13;102541.81;;;12.93;66.93
66524;BME280;53350;52.210;5.160;2023-05-20T04:07:40;102534.94;;;12.92;67.04
66524;BME280;53350;52.210;5.160;2023-05-20T04:10:07;102535.78;;;12.94;67.00
66524;BME280;53350;52.210;5.160;2023-05-20T04:12:34;102534.09;;;12.95;66.88
66524;BME280;53350;52.210;5.160;2023-05-20T04:15:04;102527.19;;;12.98;66.83
66524;BME280;53350;52.210;5.160;2023-05-20T04:17:30;102533.19;;;12.93;67.02
66524;BME280;53350;52.210;5.160;2023-05-20T04:19:57;102541.78;;;12.87;67.22
66524;BME280;53350;52.210;5.160;2023-05-20T04:22:24;102538.34;;;12.88;67.35
66524;BME280;53350;52.210;5.160;2023-05-20T04:24:51;102540.94;;;12.88;67.35
66524;BME280;53350;52.210;5.160;2023-05-20T04:27:18;102535.78;;;12.90;67.48
66524;BME280;53350;52.210;5.160;2023-05-20T04:29:45;102534.94;;;12.91;67.24
66524;BME280;53350;52.210;5.160;2023-05-20T04:32:16;102537.53;;;12.92;67.80
66524;BME280;53350;52.210;5.160;2023-05-20T04:34:43;102545.28;;;12.91;67.30
66524;BME280;53350;52.210;5.160;2023-05-20T04:37:10;102543.53;;;12.93;67.69
66524;BME280;53350;52.210;5.160;2023-05-20T04:39:37;102541.84;;;12.96;67.50
66524;BME280;53350;52.210;5.160;2023-05-20T04:42:04;102544.44;;;12.96;67.56
66524;BME280;53350;52.210;5.160;2023-05-20T04:44:31;102548.72;;;12.94;67.67
66524;BME280;53350;52.210;5.160;2023-05-20T04:46:57;102551.31;;;12.91;67.74
66524;BME280;53350;52.210;5.160;2023-05-20T04:49:25;102551.31;;;12.96;67.47
66524;BME280;53350;52.210;5.160;2023-05-20T04:51:53;102553.91;;;12.97;67.68
66524;BME280;53350;52.210;5.160;2023-05-20T04:54:20;102564.31;;;13.03;67.47
66524;BME280;53350;52.210;5.160;2023-05-20T04:56:46;102559.16;;;13.07;67.37
66524;BME280;53350;52.210;5.160;2023-05-20T04:59:13;102554.81;;;13.05;67.42
66524;BME280;53350;52.210;5.160;2023-05-20T05:01:39;102556.56;;;13.03;67.48
66524;BME280;53350;52.210;5.160;2023-05-20T05:04:06;102554.81;;;13.05;67.40
66524;BME280;53350;52.210;5.160;2023-05-20T05:06:33;102551.41;;;13.11;67.41
66524;BME280;53350;52.210;5.160;2023-05-20T05:09:00;102547.94;;;13.09;67.35
66524;BME280;53350;52.210;5.160;2023-05-20T05:11:26;102548.81;;;13.11;67.39
66524;BME280;53350;52.210;5.160;2023-05-20T05:13:53;102549.69;;;13.13;67.43
66524;BME280;53350;52.210;5.160;2023-05-20T05:16:20;102545.38;;;13.14;67.62
66524;BME280;53350;52.210;5.160;2023-05-20T05:18:47;102545.38;;;13.15;67.57
66524;BME280;53350;52.210;5.160;2023-05-20T05:21:13;102548.00;;;13.20;67.64
66524;BME280;53350;52.210;5.160;2023-05-20T05:23:41;102541.97;;;13.26;67.49
66524;BME280;53350;52.210;5.160;2023-05-20T05:26:08;102536.91;;;13.46;67.04
66524;BME280;53350;52.210;5.160;2023-05-20T05:28:34;102546.44;;;13.64;66.63
66524;BME280;53350;52.210;5.160;2023-05-20T05:31:01;102535.22;;;13.77;66.25
66524;BME280;53350;52.210;5.160;2023-05-20T05:33:27;102536.16;;;13.99;65.56
66524;BME280;53350;52.210;5.160;2023-05-20T05:35:54;102531.84;;;14.14;65.19
66524;BME280;53350;52.210;5.160;2023-05-20T05:38:23;102526.63;;;14.31;64.75
66524;BME280;53350;52.210;5.160;2023-05-20T05:40:50;102524.88;;;14.48;64.01
66524;BME280;53350;52.210;5.160;2023-05-20T05:43:17;102530.06;;;14.56;63.96
66524;BME280;53350;52.210;5.160;2023-05-20T05:45:43;102517.97;;;14.64;63.43
66524;BME280;53350;52.210;5.160;2023-05-20T05:48:10;102517.94;;;14.75;63.39
66524;BME280;53350;52.210;5.160;2023-05-20T05:50:36;102522.25;;;14.82;63.20
66524;BME280;53350;52.210;5.160;2023-05-20T05:53:02;102513.59;;;14.89;63.43
66524;BME280;53350;52.210;5.160;2023-05-20T05:55:29;102509.22;;;15.04;62.76
66524;BME280;53350;52.210;5.160;2023-05-20T05:57:57;102518.69;;;15.09;62.45
66524;BME280;53350;52.210;5.160;2023-05-20T06:00:23;102520.41;;;15.17;62.24
66524;BME280;53350;52.210;5.160;2023-05-20T06:02:50;102519.50;;;15.19;62.18
66524;BME280;53350;52.210;5.160;2023-05-20T06:05:16;102525.53;;;15.26;62.07
66524;BME280;53350;52.210;5.160;2023-05-20T06:07:43;102518.59;;;15.34;61.88
66524;BME280;53350;52.210;5.160;2023-05-20T06:10:10;102519.41;;;15.44;61.70
66524;BME280;53350;52.210;5.160;2023-05-20T06:12:36;102518.50;;;15.51;61.01
66524;BME280;53350;52.210;5.160;2023-05-20T06:15:05;102523.66;;;15.57;60.89
66524;BME280;53350;52.210;5.160;2023-05-20T06:17:32;102521.06;;;15.57;61.07
66524;BME280;53350;52.210;5.160;2023-05-20T06:19:58;102520.13;;;15.66;60.62
66524;BME280;53350;52.210;5.160;2023-05-20T06:22:24;102520.94;;;15.73;60.39
66524;BME280;53350;52.210;5.160;2023-05-20T06:24:52;102516.59;;;15.79;60.70
66524;BME280;53350;52.210;5.160;2023-05-20T06:27:20;102516.53;;;15.90;60.09
66524;BME280;53350;52.210;5.160;2023-05-20T06:29:47;102515.59;;;15.94;59.74
66524;BME280;53350;52.210;5.160;2023-05-20T06:32:14;102523.34;;;16.04;59.57
66524;BME280;53350;52.210;5.160;2023-05-20T06:34:41;102525.06;;;16.05;59.78
66524;BME280;53350;52.210;5.160;2023-05-20T06:37:07;102524.16;;;16.09;59.67
66524;BME280;53350;52.210;5.160;2023-05-20T06:39:34;102524.19;;;16.04;59.38
66524;BME280;53350;52.210;5.160;2023-05-20T06:42:00;102518.09;;;16.08;59.72
66524;BME280;53350;52.210;5.160;2023-05-20T06:44:27;102509.34;;;16.20;59.31
66524;BME280;53350;52.210;5.160;2023-05-20T06:46:53;102523.94;;;16.33;59.14
66524;BME280;53350;52.210;5.160;2023-05-20T06:49:21;102501.28;;;16.46;59.19
66524;BME280;53350;52.210;5.160;2023-05-20T06:51:48;102500.28;;;16.58;58.27
66524;BME280;53350;52.210;5.160;2023-05-20T06:54:15;102501.88;;;16.73;57.63
66524;BME280;53350;52.210;5.160;2023-05-20T06:56:41;102498.47;;;16.66;57.46
66524;BME280;53350;52.210;5.160;2023-05-20T06:59:08;102493.25;;;16.66;57.64
66524;BME280;53350;52.210;5.160;2023-05-20T07:01:35;102497.56;;;16.69;57.73
66524;BME280;53350;52.210;5.160;2023-05-20T07:04:01;102495.75;;;16.79;57.12
66524;BME280;53350;52.210;5.160;2023-05-20T07:06:29;102499.13;;;16.84;57.32
66524;BME280;53350;52.210;5.160;2023-05-20T07:08:55;102500.00;;;16.86;56.61
66524;BME280;53350;52.210;5.160;2023-05-20T07:11:22;102503.47;;;16.83;56.98
66524;BME280;53350;52.210;5.160;2023-05-20T07:13:48;102497.38;;;16.89;57.09
66524;BME280;53350;52.210;5.160;2023-05-20T07:16:14;102498.91;;;17.06;56.79
66524;BME280;53350;52.210;5.160;2023-05-20T07:18:41;102497.00;;;17.18;55.78
66524;BME280;53350;52.210;5.160;2023-05-20T07:21:07;102489.97;;;17.25;55.76
66524;BME280;53350;52.210;5.160;2023-05-20T07:23:35;102489.88;;;17.31;55.75
66524;BME280;53350;52.210;5.160;2023-05-20T07:26:01;102493.34;;;17.30;55.74
66524;BME280;53350;52.210;5.160;2023-05-20T07:28:28;102490.66;;;17.40;54.88
66524;BME280;53350;52.210;5.160;2023-05-20T07:30:55;102478.34;;;17.48;54.41
66524;BME280;53350;52.210;5.160;2023-05-20T07:33:22;102475.66;;;17.54;54.72
66524;BME280;53350;52.210;5.160;2023-05-20T07:35:48;102482.50;;;17.60;54.66
66524;BME280;53350;52.210;5.160;2023-05-20T07:38:15;102478.13;;;17.63;54.14
66524;BME280;53350;52.210;5.160;2023-05-20T07:40:42;102485.84;;;17.68;54.21
66524;BME280;53350;52.210;5.160;2023-05-20T07:43:09;102470.13;;;17.76;54.00
66524;BME280;53350;52.210;5.160;2023-05-20T07:45:36;102475.34;;;17.76;53.45
66524;BME280;53350;52.210;5.160;2023-05-20T07:48:03;102467.38;;;17.83;53.08
66524;BME280;53350;52.210;5.160;2023-05-20T07:50:29;102469.09;;;17.84;53.14
66524;BME280;53350;52.210;5.160;2023-05-20T07:52:56;102465.44;;;17.98;52.63
66524;BME280;53350;52.210;5.160;2023-05-20T07:55:22;102463.53;;;18.06;52.21
66524;BME280;53350;52.210;5.160;2023-05-20T07:57:50;102467.00;;;18.08;52.23
66524;BME280;53350;52.210;5.160;2023-05-20T08:00:17;102451.28;;;18.11;51.49
66524;BME280;53350;52.210;5.160;2023-05-20T08:02:44;102452.00;;;18.19;51.83
66524;BME280;53350;52.210;5.160;2023-05-20T08:05:10;102461.44;;;18.27;51.68
66524;BME280;53350;52.210;5.160;2023-05-20T08:07:37;102458.72;;;18.33;51.19
66524;BME280;53350;52.210;5.160;2023-05-20T08:10:04;102452.56;;;18.37;50.95
66524;BME280;53350;52.210;5.160;2023-05-20T08:12:30;102473.25;;;18.45;50.59
66524;BME280;53350;52.210;5.160;2023-05-20T08:14:58;102455.78;;;18.50;49.96
66524;BME280;53350;52.210;5.160;2023-05-20T08:17:24;102455.84;;;18.47;49.70
66524;BME280;53350;52.210;5.160;2023-05-20T08:19:51;102453.09;;;18.53;49.53
66524;BME280;53350;52.210;5.160;2023-05-20T08:22:17;102453.00;;;18.57;49.86
66524;BME280;53350;52.210;5.160;2023-05-20T08:24:44;102451.25;;;18.58;49.91
66524;BME280;53350;52.210;5.160;2023-05-20T08:27:10;102452.69;;;18.74;49.49
66524;BME280;53350;52.210;5.160;2023-05-20T08:29:37;102441.34;;;18.74;49.27
66524;BME280;53350;52.210;5.160;2023-05-20T08:32:05;102440.19;;;18.90;49.09
66524;BME280;53350;52.210;5.160;2023-05-20T08:34:31;102432.81;;;19.09;48.35
66524;BME280;53350;52.210;5.160;2023-05-20T08:36:58;102438.75;;;19.15;47.14
66524;BME280;53350;52.210;5.160;2023-05-20T08:39:24;102429.19;;;19.15;47.08
66524;BME280;53350;52.210;5.160;2023-05-20T08:41:51;102424.38;;;19.34;46.88
66524;BME280;53350;52.210;5.160;2023-05-20T08:44:18;102442.38;;;19.48;45.95
66524;BME280;53350;52.210;5.160;2023-05-20T08:46:45;102435.34;;;19.50;44.96
66524;BME280;53350;52.210;5.160;2023-05-20T08:49:13;102419.66;;;19.50;45.00
66524;BME280;53350;52.210;5.160;2023-05-20T08:51:39;102424.75;;;19.55;45.03
66524;BME280;53350;52.210;5.160;2023-05-20T08:54:07;102428.06;;;19.63;45.20
66524;BME280;53350;52.210;5.160;2023-05-20T08:56:34;102424.38;;;19.70;44.90
66524;BME280;53350;52.210;5.160;2023-05-20T08:59:02;102414.63;;;19.78;44.34
66524;BME280;53350;52.210;5.160;2023-05-20T09:01:29;102420.72;;;19.79;44.50
66524;BME280;53350;52.210;5.160;2023-05-20T09:03:56;102405.03;;;19.79;43.50
66524;BME280;53350;52.210;5.160;2023-05-20T09:06:23;102410.78;;;19.92;43.18
66524;BME280;53350;52.210;5.160;2023-05-20T09:08:50;102415.94;;;19.95;42.79
66524;BME280;53350;52.210;5.160;2023-05-20T09:11:17;102401.94;;;19.97;43.23
66524;BME280;53350;52.210;5.160;2023-05-20T09:13:43;102407.81;;;20.04;43.16
66524;BME280;53350;52.210;5.160;2023-05-20T09:16:09;102434.03;;;20.03;42.02
66524;BME280;53350;52.210;5.160;2023-05-20T09:18:37;102412.09;;;20.08;42.04
66524;BME280;53350;52.210;5.160;2023-05-20T09:21:04;102409.44;;;20.10;41.55
66524;BME280;53350;52.210;5.160;2023-05-20T09:23:35;102399.75;;;20.13;41.06
66524;BME280;53350;52.210;5.160;2023-05-20T09:26:02;102399.72;;;20.15;41.31
66524;BME280;53350;52.210;5.160;2023-05-20T09:28:29;102391.59;;;20.24;41.51
66524;BME280;53350;52.210;5.160;2023-05-20T09:30:57;102378.41;;;20.27;41.37
66524;BME280;53350;52.210;5.160;2023-05-20T09:33:26;102404.19;;;20.41;40.96
66524;BME280;53350;52.210;5.160;2023-05-20T09:36:01;102374.94;;;20.27;41.64
66524;BME280;53350;52.210;5.160;2023-05-20T09:38:28;102394.38;;;20.49;40.08
66524;BME280;53350;52.210;5.160;2023-05-20T09:41:02;102374.22;;;20.52;39.23
66524;BME280;53350;52.210;5.160;2023-05-20T09:43:32;102385.50;;;20.55;39.98
66524;BME280;53350;52.210;5.160;2023-05-20T09:45:59;102380.00;;;20.63;39.94
66524;BME280;53350;52.210;5.160;2023-05-20T09:48:27;102390.28;;;20.71;39.80
66524;BME280;53350;52.210;5.160;2023-05-20T09:50:56;102375.63;;;20.63;39.17
66524;BME280;53350;52.210;5.160;2023-05-20T09:53:22;102375.63;;;20.63;38.79
66524;BME280;53350;52.210;5.160;2023-05-20T09:55:52;102370.47;;;20.60;38.59
66524;BME280;53350;52.210;5.160;2023-05-20T09:58:21;102370.44;;;20.62;39.08
66524;BME280;53350;52.210;5.160;2023-05-20T10:00:48;102374.88;;;20.60;39.67
66524;BME280;53350;52.210;5.160;2023-05-20T10:03:14;102372.47;;;20.82;38.57
66524;BME280;53350;52.210;5.160;2023-05-20T10:05:46;102375.78;;;20.89;37.84
66524;BME280;53350;52.210;5.160;2023-05-20T10:08:29;102360.63;;;20.70;38.48
66524;BME280;53350;52.210;5.160;2023-05-20T10:11:04;102370.22;;;20.70;38.26
66524;BME280;53350;52.210;5.160;2023-05-20T10:13:51;102355.25;;;20.75;38.35
66524;BME280;53350;52.210;5.160;2023-05-20T10:16:30;102351.69;;;20.77;39.25
66524;BME280;53350;52.210;5.160;2023-05-20T10:19:06;102364.56;;;20.83;38.67
66524;BME280;53350;52.210;5.160;2023-05-20T10:21:36;102362.00;;;20.82;39.15
66524;BME280;53350;52.210;5.160;2023-05-20T10:24:06;102356.75;;;20.82;39.28
66524;BME280;53350;52.210;5.160;2023-05-20T10:26:34;102338.00;;;20.67;39.30
66524;BME280;53350;52.210;5.160;2023-05-20T10:29:13;102345.28;;;20.56;39.71
66524;BME280;53350;52.210;5.160;2023-05-20T10:31:43;102335.34;;;20.69;39.19
66524;BME280;53350;52.210;5.160;2023-05-20T10:34:14;102332.03;;;20.62;38.99
66524;BME280;53350;52.210;5.160;2023-05-20T10:36:44;102330.00;;;20.72;38.30
66524;BME280;53350;52.210;5.160;2023-05-20T10:39:14;102342.94;;;20.78;37.50
66524;BME280;53350;52.210;5.160;2023-05-20T10:41:41;102326.34;;;20.78;38.33
66524;BME280;53350;52.210;5.160;2023-05-20T10:44:09;102307.78;;;20.86;38.15
66524;BME280;53350;52.210;5.160;2023-05-20T10:46:36;102315.53;;;20.89;38.88
66524;BME280;53350;52.210;5.160;2023-05-20T10:49:03;102311.44;;;21.07;37.86
66524;BME280;53350;52.210;5.160;2023-05-20T10:51:30;102314.97;;;21.06;37.99
66524;BME280;53350;52.210;5.160;2023-05-20T10:53:57;102316.47;;;21.13;37.75
66524;BME280;53350;52.210;5.160;2023-05-20T10:56:25;102300.47;;;21.22;37.65
66524;BME280;53350;52.210;5.160;2023-05-20T10:58:53;102299.97;;;21.36;37.82
66524;BME280;53350;52.210;5.160;2023-05-20T11:01:24;102289.13;;;21.47;37.89
66524;BME280;53350;52.210;5.160;2023-05-20T11:03:51;102307.00;;;21.61;37.30
66524;BME280;53350;52.210;5.160;2023-05-20T11:06:25;102291.88;;;21.44;37.59
66524;BME280;53350;52.210;5.160;2023-05-20T11:08:53;102289.13;;;21.47;37.52
66524;BME280;53350;52.210;5.160;2023-05-20T11:11:21;102295.22;;;21.47;37.32
66524;BME280;53350;52.210;5.160;2023-05-20T11:13:49;102283.19;;;21.42;37.69
66524;BME280;53350;52.210;5.160;2023-05-20T11:16:16;102301.25;;;21.51;37.28
66524;BME280;53350;52.210;5.160;2023-05-20T11:18:47;102291.56;;;21.53;36.69
66524;BME280;53350;52.210;5.160;2023-05-20T11:21:13;102289.84;;;21.50;36.66
66524;BME280;53350;52.210;5.160;2023-05-20T11:23:41;102290.19;;;21.41;37.02
66524;BME280;53350;52.210;5.160;2023-05-20T11:26:07;102298.34;;;21.33;36.90
66524;BME280;53350;52.210;5.160;2023-05-20T11:28:34;102294.50;;;21.17;37.00
66524;BME280;53350;52.210;5.160;2023-05-20T11:31:00;102279.84;;;21.11;37.36
66524;BME280;53350;52.210;5.160;2023-05-20T11:33:28;102289.63;;;21.06;37.50
66524;BME280;53350;52.210;5.160;2023-05-20T11:35:56;102285.81;;;21.16;37.64
66524;BME280;53350;52.210;5.160;2023-05-20T11:38:23;102275.69;;;21.31;37.71
66524;BME280;53350;52.210;5.160;2023-05-20T11:40:51;102291.25;;;21.35;37.35
66524;BME280;53350;52.210;5.160;2023-05-20T11:43:18;102278.16;;;21.35;37.38
66524;BME280;53350;52.210;5.160;2023-05-20T11:45:46;102285.06;;;21.38;37.74
66524;BME280;53350;52.210;5.160;2023-05-20T11:48:12;102276.00;;;21.22;37.27
66524;BME280;53350;52.210;5.160;2023-05-20T11:50:40;102274.72;;;21.08;38.07
66524;BME280;53350;52.210;5.160;2023-05-20T11:53:09;102266.28;;;20.98;38.57
66524;BME280;53350;52.210;5.160;2023-05-20T11:55:44;102268.03;;;20.99;39.05
66524;BME280;53350;52.210;5.160;2023-05-20T11:58:11;102269.06;;;21.21;38.23
66524;BME280;53350;52.210;5.160;2023-05-20T12:00:40;102257.88;;;21.15;37.77
66524;BME280;53350;52.210;5.160;2023-05-20T12:03:07;102267.34;;;21.19;38.11
66524;BME280;53350;52.210;5.160;2023-05-20T12:05:33;102260.38;;;21.18;38.71
66524;BME280;53350;52.210;5.160;2023-05-20T12:08:00;102257.28;;;21.32;38.17
66524;BME280;53350;52.210;5.160;2023-05-20T12:10:27;102243.66;;;21.23;38.33
66524;BME280;53350;52.210;5.160;2023-05-20T12:12:54;102242.91;;;21.44;38.13
66524;BME280;53350;52.210;5.160;2023-05-20T12:15:20;102239.56;;;21.39;37.91
66524;BME280;53350;52.210;5.160;2023-05-20T12:17:48;102238.25;;;21.27;38.48
66524;BME280;53350;52.210;5.160;2023-05-20T12:20:15;102234.72;;;21.28;38.92
66524;BME280;53350;52.210;5.160;2023-05-20T12:22:43;102240.69;;;21.32;38.18
66524;BME280;53350;52.210;5.160;2023-05-20T12:25:10;102221.69;;;21.27;38.47
66524;BME280;53350;52.210;5.160;2023-05-20T12:27:38;102238.19;;;21.29;37.83
66524;BME280;53350;52.210;5.160;2023-05-20T12:30:08;102236.69;;;21.22;38.53
66524;BME280;53350;52.210;5.160;2023-05-20T12:32:35;102232.44;;;21.19;38.57
66524;BME280;53350;52.210;5.160;2023-05-20T12:35:02;102223.22;;;21.32;38.11
66524;BME280;53350;52.210;5.160;2023-05-20T12:37:28;102221.13;;;21.42;38.34
66524;BME280;53350;52.210;5.160;2023-05-20T12:39:55;102229.84;;;21.43;38.23
66524;BME280;53350;52.210;5.160;2023-05-20T12:42:21;102228.84;;;21.47;38.17
66524;BME280;53350;52.210;5.160;2023-05-20T12:44:49;102227.06;;;21.47;37.99
66524;BME280;53350;52.210;5.160;2023-05-20T12:47:15;102213.59;;;21.58;38.35
66524;BME280;53350;52.210;5.160;2023-05-20T12:49:42;102222.25;;;21.60;37.77